Zouila, Tunisia
Current Conditions -  °F | °C
As of 8:30 AM on Tuesday 21 Oct 2014 (Local Time) from DTMB Reporting Station
Scattered Clouds Scattered Clouds  
Wind Chill: 73°   Ceiling: Unl
Heat Index: 73°   Visibility: 6mi
Dew Point: 70°   Wind: 7mph
Humidity: 88%   Direction: 280°W
Pressure: 30.09"   Gusts: NA
Location:  35.5°N, 11.06°E
Report Text: DTMB 210730Z 28006KT 9999 SCT016 23/21 Q1019 NOSIG
Loading
Personal Weather Stations






























Interactive Weather Map
Tropical Storm Tracking
New forecast layout! Learn more

10-Day Weather Forecast

Advertisements
Track Severe Weather on mobile